sensor_id;sensor_type;location;lat;lon;timestamp;pressure;altitude;pressure_sealevel;temperature;humidity
22104;BME280;11218;48.886;9.426;2023-02-23T00:01:53;97700.75;;;8.25;82.58
22104;BME280;11218;48.886;9.426;2023-02-23T00:04:23;97695.94;;;8.27;84.06
22104;BME280;11218;48.886;9.426;2023-02-23T00:06:52;97700.38;;;8.33;84.57
22104;BME280;11218;48.886;9.426;2023-02-23T00:09:22;97698.03;;;8.37;84.18
22104;BME280;11218;48.886;9.426;2023-02-23T00:11:52;97698.09;;;8.42;84.87
22104;BME280;11218;48.886;9.426;2023-02-23T00:14:20;97692.75;;;8.42;84.51
22104;BME280;11218;48.886;9.426;2023-02-23T00:16:54;97694.03;;;8.39;83.88
22104;BME280;11218;48.886;9.426;2023-02-23T00:19:23;97691.28;;;8.34;83.39
22104;BME280;11218;48.886;9.426;2023-02-23T00:21:52;97694.19;;;8.33;83.76
22104;BME280;11218;48.886;9.426;2023-02-23T00:24:24;97686.16;;;8.33;83.35
22104;BME280;11218;48.886;9.426;2023-02-23T00:26:53;97685.31;;;8.32;84.15
22104;BME280;11218;48.886;9.426;2023-02-23T00:29:22;97689.84;;;8.32;83.35
22104;BME280;11218;48.886;9.426;2023-02-23T00:31:51;97681.50;;;8.28;83.46
22104;BME280;11218;48.886;9.426;2023-02-23T00:34:23;97686.03;;;8.28;83.33
22104;BME280;11218;48.886;9.426;2023-02-23T00:36:52;97692.22;;;8.28;83.92
22104;BME280;11218;48.886;9.426;2023-02-23T00:39:22;97682.88;;;8.31;83.66
22104;BME280;11218;48.886;9.426;2023-02-23T00:41:52;97690.59;;;8.27;83.80
22104;BME280;11218;48.886;9.426;2023-02-23T00:44:22;97693.28;;;8.27;83.53
22104;BME280;11218;48.886;9.426;2023-02-23T00:46:51;97681.16;;;8.24;83.48
22104;BME280;11218;48.886;9.426;2023-02-23T00:49:20;97689.78;;;8.27;83.42
22104;BME280;11218;48.886;9.426;2023-02-23T00:51:50;97682.22;;;8.23;83.70
22104;BME280;11218;48.886;9.426;2023-02-23T00:54:19;97682.22;;;8.23;83.96
22104;BME280;11218;48.886;9.426;2023-02-23T00:56:48;97681.97;;;8.25;84.23
22104;BME280;11218;48.886;9.426;2023-02-23T00:59:17;97678.09;;;8.33;85.23
22104;BME280;11218;48.886;9.426;2023-02-23T01:01:46;97679.56;;;8.40;85.35
22104;BME280;11218;48.886;9.426;2023-02-23T01:04:14;97682.50;;;8.39;84.55
22104;BME280;11218;48.886;9.426;2023-02-23T01:06:42;97680.06;;;8.37;85.12
22104;BME280;11218;48.886;9.426;2023-02-23T01:09:16;97683.56;;;8.38;85.12
22104;BME280;11218;48.886;9.426;2023-02-23T01:11:55;97684.03;;;8.35;84.74
22104;BME280;11218;48.886;9.426;2023-02-23T01:14:27;97674.38;;;8.34;84.13
22104;BME280;11218;48.886;9.426;2023-02-23T01:16:57;97683.22;;;8.34;84.56
22104;BME280;11218;48.886;9.426;2023-02-23T01:19:25;97675.63;;;8.31;85.00
22104;BME280;11218;48.886;9.426;2023-02-23T01:21:52;97681.59;;;8.33;84.53
22104;BME280;11218;48.886;9.426;2023-02-23T01:24:22;97674.81;;;8.31;84.88
22104;BME280;11218;48.886;9.426;2023-02-23T01:26:50;97672.75;;;8.33;84.38
22104;BME280;11218;48.886;9.426;2023-02-23T01:29:19;97671.91;;;8.32;84.69
22104;BME280;11218;48.886;9.426;2023-02-23T01:31:48;97676.00;;;8.35;85.18
22104;BME280;11218;48.886;9.426;2023-02-23T01:34:19;97674.94;;;8.36;84.96
22104;BME280;11218;48.886;9.426;2023-02-23T01:36:48;97684.38;;;8.38;86.03
22104;BME280;11218;48.886;9.426;2023-02-23T01:39:18;97680.88;;;8.38;86.86
22104;BME280;11218;48.886;9.426;2023-02-23T01:41:48;97688.09;;;8.37;86.17
22104;BME280;11218;48.886;9.426;2023-02-23T01:47:24;97673.69;;;8.27;87.07
22104;BME280;11218;48.886;9.426;2023-02-23T01:49:53;97669.09;;;8.39;87.19
22104;BME280;11218;48.886;9.426;2023-02-23T01:52:21;97676.41;;;8.43;87.52
22104;BME280;11218;48.886;9.426;2023-02-23T01:54:50;97670.78;;;8.45;90.17
22104;BME280;11218;48.886;9.426;2023-02-23T01:57:22;97665.75;;;8.48;89.07
22104;BME280;11218;48.886;9.426;2023-02-23T01:59:53;97670.88;;;8.50;90.07
22104;BME280;11218;48.886;9.426;2023-02-23T02:02:24;97662.56;;;8.51;90.59
22104;BME280;11218;48.886;9.426;2023-02-23T02:05:00;97667.22;;;8.56;89.71
22104;BME280;11218;48.886;9.426;2023-02-23T02:07:31;97653.06;;;8.61;90.44
22104;BME280;11218;48.886;9.426;2023-02-23T02:10:01;97651.75;;;8.63;90.79
22104;BME280;11218;48.886;9.426;2023-02-23T02:13:00;97660.13;;;8.67;91.24
22104;BME280;11218;48.886;9.426;2023-02-23T02:15:34;97651.81;;;8.68;91.75
22104;BME280;11218;48.886;9.426;2023-02-23T02:18:12;97652.06;;;8.67;91.22
22104;BME280;11218;48.886;9.426;2023-02-23T02:21:02;97659.22;;;8.61;91.24
22104;BME280;11218;48.886;9.426;2023-02-23T02:26:57;97657.47;;;8.50;90.68
22104;BME280;11218;48.886;9.426;2023-02-23T02:30:04;97660.88;;;8.45;89.99
22104;BME280;11218;48.886;9.426;2023-02-23T02:32:57;97655.19;;;8.42;89.59
22104;BME280;11218;48.886;9.426;2023-02-23T02:36:13;97659.75;;;8.41;90.93
22104;BME280;11218;48.886;9.426;2023-02-23T02:38:52;97652.25;;;8.43;89.87
22104;BME280;11218;48.886;9.426;2023-02-23T02:41:33;97650.88;;;8.41;90.57
22104;BME280;11218;48.886;9.426;2023-02-23T02:44:12;97644.94;;;8.39;90.65
22104;BME280;11218;48.886;9.426;2023-02-23T02:46:45;97646.50;;;8.35;91.72
22104;BME280;11218;48.886;9.426;2023-02-23T02:49:19;97647.56;;;8.34;91.90
22104;BME280;11218;48.886;9.426;2023-02-23T02:51:55;97644.06;;;8.33;91.70
22104;BME280;11218;48.886;9.426;2023-02-23T02:54:29;97653.13;;;8.32;92.61
22104;BME280;11218;48.886;9.426;2023-02-23T02:57:01;97646.97;;;8.32;92.95
22104;BME280;11218;48.886;9.426;2023-02-23T02:59:30;97651.50;;;8.31;92.73
22104;BME280;11218;48.886;9.426;2023-02-23T03:02:18;97649.88;;;8.30;92.40
22104;BME280;11218;48.886;9.426;2023-02-23T03:05:12;97649.88;;;8.30;92.84
22104;BME280;11218;48.886;9.426;2023-02-23T03:08:04;97646.16;;;8.31;92.93
22104;BME280;11218;48.886;9.426;2023-02-23T03:10:57;97639.72;;;8.32;92.51
22104;BME280;11218;48.886;9.426;2023-02-23T03:13:54;97637.41;;;8.36;93.32
22104;BME280;11218;48.886;9.426;2023-02-23T03:16:51;97639.84;;;8.37;92.84
22104;BME280;11218;48.886;9.426;2023-02-23T03:19:45;97638.28;;;8.41;93.24
22104;BME280;11218;48.886;9.426;2023-02-23T03:22:37;97635.59;;;8.41;93.39
22104;BME280;11218;48.886;9.426;2023-02-23T03:25:28;97636.97;;;8.44;93.35
22104;BME280;11218;48.886;9.426;2023-02-23T03:28:20;97643.97;;;8.45;93.48
22104;BME280;11218;48.886;9.426;2023-02-23T03:31:14;97640.22;;;8.46;93.53
22104;BME280;11218;48.886;9.426;2023-02-23T03:34:07;97631.38;;;8.45;92.98
22104;BME280;11218;48.886;9.426;2023-02-23T03:36:57;97641.84;;;8.47;93.28
22104;BME280;11218;48.886;9.426;2023-02-23T03:39:51;97639.41;;;8.45;93.51
22104;BME280;11218;48.886;9.426;2023-02-23T03:42:39;97646.41;;;8.46;93.59
22104;BME280;11218;48.886;9.426;2023-02-23T03:45:28;97636.50;;;8.47;93.20
22104;BME280;11218;48.886;9.426;2023-02-23T03:48:16;97643.47;;;8.48;93.06
22104;BME280;11218;48.886;9.426;2023-02-23T03:51:06;97641.84;;;8.47;93.01
22104;BME280;11218;48.886;9.426;2023-02-23T03:53:57;97643.72;;;8.46;92.85
22104;BME280;11218;48.886;9.426;2023-02-23T03:56:47;97645.84;;;8.44;93.38
22104;BME280;11218;48.886;9.426;2023-02-23T03:59:37;97646.91;;;8.43;92.96
22104;BME280;11218;48.886;9.426;2023-02-23T04:02:25;97642.34;;;8.44;92.93
22104;BME280;11218;48.886;9.426;2023-02-23T04:05:16;97642.34;;;8.44;92.96
22104;BME280;11218;48.886;9.426;2023-02-23T04:08:04;97637.78;;;8.44;92.76
22104;BME280;11218;48.886;9.426;2023-02-23T04:10:58;97642.34;;;8.44;93.97
22104;BME280;11218;48.886;9.426;2023-02-23T04:13:48;97647.16;;;8.42;92.94
22104;BME280;11218;48.886;9.426;2023-02-23T04:16:19;97643.97;;;8.45;93.19
22104;BME280;11218;48.886;9.426;2023-02-23T04:18:47;97643.97;;;8.45;92.80
22104;BME280;11218;48.886;9.426;2023-02-23T04:21:15;97643.66;;;8.41;93.33
22104;BME280;11218;48.886;9.426;2023-02-23T04:23:44;97640.97;;;8.41;93.40
22104;BME280;11218;48.886;9.426;2023-02-23T04:26:12;97646.34;;;8.41;93.98
22104;BME280;11218;48.886;9.426;2023-02-23T04:28:43;97642.03;;;8.40;93.21
22104;BME280;11218;48.886;9.426;2023-02-23T04:31:11;97643.66;;;8.41;93.59
22104;BME280;11218;48.886;9.426;2023-02-23T04:33:39;97648.78;;;8.43;93.22
22104;BME280;11218;48.886;9.426;2023-02-23T04:36:08;97649.00;;;8.41;94.09
22104;BME280;11218;48.886;9.426;2023-02-23T04:38:36;97649.81;;;8.42;94.34
22104;BME280;11218;48.886;9.426;2023-02-23T04:41:04;97655.50;;;8.45;92.83
22104;BME280;11218;48.886;9.426;2023-02-23T04:43:32;97651.94;;;8.40;93.35
22104;BME280;11218;48.886;9.426;2023-02-23T04:46:00;97653.72;;;8.34;93.66
22104;BME280;11218;48.886;9.426;2023-02-23T04:48:28;97650.94;;;8.29;93.77
22104;BME280;11218;48.886;9.426;2023-02-23T04:50:56;97650.38;;;8.27;94.01
22104;BME280;11218;48.886;9.426;2023-02-23T04:53:26;97646.63;;;8.28;94.36
22104;BME280;11218;48.886;9.426;2023-02-23T04:55:54;97656.31;;;8.29;93.80
22104;BME280;11218;48.886;9.426;2023-02-23T04:58:22;97642.09;;;8.29;94.48
22104;BME280;11218;48.886;9.426;2023-02-23T05:00:50;97658.50;;;8.32;94.05
22104;BME280;11218;48.886;9.426;2023-02-23T05:03:18;97654.19;;;8.31;94.11
22104;BME280;11218;48.886;9.426;2023-02-23T05:05:46;97658.50;;;8.32;93.99
22104;BME280;11218;48.886;9.426;2023-02-23T05:08:14;97653.13;;;8.32;93.57
22104;BME280;11218;48.886;9.426;2023-02-23T05:10:44;97646.75;;;8.33;94.50
22104;BME280;11218;48.886;9.426;2023-02-23T05:13:12;97654.53;;;8.35;94.03
22104;BME280;11218;48.886;9.426;2023-02-23T05:15:41;97648.13;;;8.36;93.37
22104;BME280;11218;48.886;9.426;2023-02-23T05:18:09;97654.38;;;8.41;93.70
22104;BME280;11218;48.886;9.426;2023-02-23T05:20:41;97647.63;;;8.39;93.70
22104;BME280;11218;48.886;9.426;2023-02-23T05:23:10;97651.94;;;8.40;94.36
22104;BME280;11218;48.886;9.426;2023-02-23T05:25:38;97642.03;;;8.40;94.12
22104;BME280;11218;48.886;9.426;2023-02-23T05:28:08;97654.38;;;8.41;95.00
22104;BME280;11218;48.886;9.426;2023-02-23T05:30:36;97644.47;;;8.42;95.20
22104;BME280;11218;48.886;9.426;2023-02-23T05:33:04;97651.44;;;8.43;95.13
22104;BME280;11218;48.886;9.426;2023-02-23T05:35:32;97654.13;;;8.43;95.08
22104;BME280;11218;48.886;9.426;2023-02-23T05:38:00;97657.63;;;8.43;95.55
22104;BME280;11218;48.886;9.426;2023-02-23T05:40:28;97654.69;;;8.45;94.99
22104;BME280;11218;48.886;9.426;2023-02-23T05:42:58;97653.88;;;8.44;95.13
22104;BME280;11218;48.886;9.426;2023-02-23T05:45:27;97657.63;;;8.43;95.41
22104;BME280;11218;48.886;9.426;2023-02-23T05:47:55;97658.44;;;8.44;95.35
22104;BME280;11218;48.886;9.426;2023-02-23T05:50:23;97657.63;;;8.43;95.33
22104;BME280;11218;48.886;9.426;2023-02-23T05:52:52;97654.38;;;8.41;94.83
22104;BME280;11218;48.886;9.426;2023-02-23T05:55:20;97654.94;;;8.43;95.41
22104;BME280;11218;48.886;9.426;2023-02-23T05:57:48;97651.44;;;8.43;95.29
22104;BME280;11218;48.886;9.426;2023-02-23T06:00:16;97658.69;;;8.42;95.07
22104;BME280;11218;48.886;9.426;2023-02-23T06:02:46;97655.44;;;8.40;95.83
22104;BME280;11218;48.886;9.426;2023-02-23T06:05:15;97653.31;;;8.42;94.96
22104;BME280;11218;48.886;9.426;2023-02-23T06:07:43;97657.88;;;8.42;95.60
22104;BME280;11218;48.886;9.426;2023-02-23T06:10:11;97661.59;;;8.41;95.15
22104;BME280;11218;48.886;9.426;2023-02-23T06:12:40;97664.28;;;8.41;95.55
22104;BME280;11218;48.886;9.426;2023-02-23T06:15:08;97658.13;;;8.40;95.45
22104;BME280;11218;48.886;9.426;2023-02-23T06:17:37;97665.34;;;8.40;94.97
22104;BME280;11218;48.886;9.426;2023-02-23T06:20:07;97662.41;;;8.41;94.97
22104;BME280;11218;48.886;9.426;2023-02-23T06:22:35;97673.72;;;8.43;95.50
22104;BME280;11218;48.886;9.426;2023-02-23T06:25:04;97677.47;;;8.42;95.06
22104;BME280;11218;48.886;9.426;2023-02-23T06:27:38;97669.41;;;8.42;95.33
22104;BME280;11218;48.886;9.426;2023-02-23T06:30:09;97673.72;;;8.43;95.34
22104;BME280;11218;48.886;9.426;2023-02-23T06:32:43;97674.53;;;8.44;95.00
22104;BME280;11218;48.886;9.426;2023-02-23T06:35:12;97680.72;;;8.44;94.98
22104;BME280;11218;48.886;9.426;2023-02-23T06:37:40;97683.16;;;8.46;95.14
22104;BME280;11218;48.886;9.426;2023-02-23T06:40:10;97681.28;;;8.46;95.93
22104;BME280;11218;48.886;9.426;2023-02-23T06:42:38;97689.66;;;8.50;94.62
22104;BME280;11218;48.886;9.426;2023-02-23T06:45:06;97682.66;;;8.49;95.36
22104;BME280;11218;48.886;9.426;2023-02-23T06:47:34;97681.59;;;8.50;95.40
22104;BME280;11218;48.886;9.426;2023-02-23T06:50:03;97685.91;;;8.51;95.43
22104;BME280;11218;48.886;9.426;2023-02-23T06:52:34;97691.03;;;8.52;95.43
22104;BME280;11218;48.886;9.426;2023-02-23T06:55:02;97689.47;;;8.56;95.38
22104;BME280;11218;48.886;9.426;2023-02-23T06:57:31;97692.97;;;8.57;95.24
22104;BME280;11218;48.886;9.426;2023-02-23T06:59:59;97692.72;;;8.59;95.49
22104;BME280;11218;48.886;9.426;2023-02-23T07:02:28;97691.91;;;8.58;95.93
22104;BME280;11218;48.886;9.426;2023-02-23T07:04:57;97698.91;;;8.59;95.88
22104;BME280;11218;48.886;9.426;2023-02-23T07:07:26;97693.28;;;8.61;96.13
22104;BME280;11218;48.886;9.426;2023-02-23T07:09:55;97697.59;;;8.62;96.15
22104;BME280;11218;48.886;9.426;2023-02-23T07:12:23;97701.66;;;8.64;96.09
22104;BME280;11218;48.886;9.426;2023-02-23T07:14:51;97704.91;;;8.66;95.75
22104;BME280;11218;48.886;9.426;2023-02-23T07:17:19;97701.75;;;8.69;95.27
22104;BME280;11218;48.886;9.426;2023-02-23T07:19:47;97710.03;;;8.68;96.35
22104;BME280;11218;48.886;9.426;2023-02-23T07:22:16;97708.16;;;8.68;95.90
22104;BME280;11218;48.886;9.426;2023-02-23T07:24:44;97706.06;;;8.70;95.52
22104;BME280;11218;48.886;9.426;2023-02-23T07:27:13;97711.41;;;8.70;96.07
22104;BME280;11218;48.886;9.426;2023-02-23T07:29:42;97711.97;;;8.72;95.82
22104;BME280;11218;48.886;9.426;2023-02-23T07:32:10;97713.28;;;8.70;95.95
22104;BME280;11218;48.886;9.426;2023-02-23T07:34:38;97719.72;;;8.69;95.10
22104;BME280;11218;48.886;9.426;2023-02-23T07:37:06;97712.22;;;8.71;95.76
22104;BME280;11218;48.886;9.426;2023-02-23T07:39:34;97713.84;;;8.72;95.74
22104;BME280;11218;48.886;9.426;2023-02-23T07:42:03;97720.03;;;8.72;96.06
22104;BME280;11218;48.886;9.426;2023-02-23T07:44:32;97717.09;;;8.74;96.33
22104;BME280;11218;48.886;9.426;2023-02-23T07:47:00;97716.28;;;8.73;96.03
22104;BME280;11218;48.886;9.426;2023-02-23T07:49:29;97717.91;;;8.74;95.44
22104;BME280;11218;48.886;9.426;2023-02-23T07:51:58;97722.78;;;8.77;95.68
22104;BME280;11218;48.886;9.426;2023-02-23T07:54:29;97727.66;;;8.80;95.49
22104;BME280;11218;48.886;9.426;2023-02-23T07:56:57;97726.38;;;8.83;95.68
22104;BME280;11218;48.886;9.426;2023-02-23T07:59:26;97726.13;;;8.84;95.83
22104;BME280;11218;48.886;9.426;2023-02-23T08:01:55;97723.44;;;8.84;95.67
22104;BME280;11218;48.886;9.426;2023-02-23T08:04:23;97721.06;;;8.88;95.44
22104;BME280;11218;48.886;9.426;2023-02-23T08:06:52;97727.06;;;8.95;96.06
22104;BME280;11218;48.886;9.426;2023-02-23T08:09:20;97726.31;;;9.00;95.57
22104;BME280;11218;48.886;9.426;2023-02-23T08:11:49;97733.06;;;9.02;96.00
22104;BME280;11218;48.886;9.426;2023-02-23T08:14:17;97728.25;;;9.04;95.77
22104;BME280;11218;48.886;9.426;2023-02-23T08:16:50;97743.63;;;9.09;96.18
22104;BME280;11218;48.886;9.426;2023-02-23T08:19:20;97743.38;;;9.10;95.89
22104;BME280;11218;48.886;9.426;2023-02-23T08:21:48;97735.06;;;9.12;96.43
22104;BME280;11218;48.886;9.426;2023-02-23T08:24:17;97735.13;;;9.17;96.76
22104;BME280;11218;48.886;9.426;2023-02-23T08:26:45;97736.44;;;9.14;96.09
22104;BME280;11218;48.886;9.426;2023-02-23T08:29:13;97732.78;;;9.20;96.07
22104;BME280;11218;48.886;9.426;2023-02-23T08:31:41;97740.81;;;9.20;96.20
22104;BME280;11218;48.886;9.426;2023-02-23T08:34:10;97745.47;;;9.25;96.47
22104;BME280;11218;48.886;9.426;2023-02-23T08:36:39;97736.34;;;9.26;96.62
22104;BME280;11218;48.886;9.426;2023-02-23T08:39:12;97736.16;;;9.33;96.42
22104;BME280;11218;48.886;9.426;2023-02-23T08:41:40;97742.66;;;9.37;95.95
22104;BME280;11218;48.886;9.426;2023-02-23T08:44:09;97737.84;;;9.39;95.96
22104;BME280;11218;48.886;9.426;2023-02-23T08:46:37;97739.22;;;9.41;96.23
22104;BME280;11218;48.886;9.426;2023-02-23T08:49:07;97741.16;;;9.46;96.10
22104;BME280;11218;48.886;9.426;2023-02-23T08:51:42;97735.28;;;9.49;96.10
22104;BME280;11218;48.886;9.426;2023-02-23T08:54:14;97739.09;;;9.53;95.63
22104;BME280;11218;48.886;9.426;2023-02-23T08:56:43;97746.97;;;9.60;95.31
22104;BME280;11218;48.886;9.426;2023-02-23T08:59:12;97742.19;;;9.67;95.60
22104;BME280;11218;48.886;9.426;2023-02-23T09:01:41;97744.13;;;9.71;95.35
22104;BME280;11218;48.886;9.426;2023-02-23T09:04:09;97744.75;;;9.78;94.66
22104;BME280;11218;48.886;9.426;2023-02-23T09:06:39;97745.94;;;9.87;94.03
22104;BME280;11218;48.886;9.426;2023-02-23T09:09:07;97747.50;;;9.83;94.17
22104;BME280;11218;48.886;9.426;2023-02-23T09:11:40;97738.13;;;9.86;93.79
22104;BME280;11218;48.886;9.426;2023-02-23T09:14:12;97737.84;;;9.87;93.85
22104;BME280;11218;48.886;9.426;2023-02-23T09:16:40;97742.72;;;9.91;93.75
22104;BME280;11218;48.886;9.426;2023-02-23T09:19:09;97746.78;;;9.93;94.10
22104;BME280;11218;48.886;9.426;2023-02-23T09:21:38;97745.22;;;9.97;93.85
22104;BME280;11218;48.886;9.426;2023-02-23T09:24:06;97739.03;;;9.97;93.55
22104;BME280;11218;48.886;9.426;2023-02-23T09:26:34;97744.16;;;9.98;93.39
22104;BME280;11218;48.886;9.426;2023-02-23T09:29:06;97739.09;;;10.02;93.40
22104;BME280;11218;48.886;9.426;2023-02-23T09:31:34;97743.97;;;10.05;93.30
22104;BME280;11218;48.886;9.426;2023-02-23T09:34:02;97748.84;;;10.08;93.19
22104;BME280;11218;48.886;9.426;2023-02-23T09:36:30;97748.84;;;10.08;92.55
22104;BME280;11218;48.886;9.426;2023-02-23T09:39:00;97757.25;;;10.16;92.72
22104;BME280;11218;48.886;9.426;2023-02-23T09:41:49;97751.06;;;10.16;92.37
22104;BME280;11218;48.886;9.426;2023-02-23T09:44:34;97752.22;;;10.20;92.26
22104;BME280;11218;48.886;9.426;2023-02-23T09:47:13;97751.44;;;10.25;92.15
22104;BME280;11218;48.886;9.426;2023-02-23T09:49:47;97753.63;;;10.28;92.03
22104;BME280;11218;48.886;9.426;2023-02-23T09:52:20;97751.00;;;10.33;91.63
22104;BME280;11218;48.886;9.426;2023-02-23T09:54:52;97744.00;;;10.32;91.44
22104;BME280;11218;48.886;9.426;2023-02-23T09:57:24;97755.34;;;10.39;91.18
22104;BME280;11218;48.886;9.426;2023-02-23T09:59:58;97749.16;;;10.38;90.98
22104;BME280;11218;48.886;9.426;2023-02-23T10:02:30;97753.50;;;10.44;90.58
22104;BME280;11218;48.886;9.426;2023-02-23T10:05:05;97747.09;;;10.50;90.82
22104;BME280;11218;48.886;9.426;2023-02-23T10:07:42;97749.81;;;10.56;90.71
22104;BME280;11218;48.886;9.426;2023-02-23T10:10:21;97749.91;;;10.66;89.46
22104;BME280;11218;48.886;9.426;2023-02-23T10:12:58;97748.06;;;10.71;88.99
22104;BME280;11218;48.886;9.426;2023-02-23T10:15:35;97749.75;;;10.82;88.34
22104;BME280;11218;48.886;9.426;2023-02-23T10:18:14;97752.50;;;10.88;86.95
22104;BME280;11218;48.886;9.426;2023-02-23T10:20:50;97748.78;;;10.94;86.89
22104;BME280;11218;48.886;9.426;2023-02-23T10:23:26;97752.63;;;11.08;87.70
22104;BME280;11218;48.886;9.426;2023-02-23T10:25:59;97741.06;;;11.17;86.82
22104;BME280;11218;48.886;9.426;2023-02-23T10:28:33;97737.94;;;11.36;86.52
22104;BME280;11218;48.886;9.426;2023-02-23T10:33:53;97737.28;;;11.66;84.84
22104;BME280;11218;48.886;9.426;2023-02-23T10:36:32;97744.09;;;11.78;84.66
22104;BME280;11218;48.886;9.426;2023-02-23T10:39:04;97734.13;;;11.84;83.98
22104;BME280;11218;48.886;9.426;2023-02-23T10:41:35;97739.25;;;11.91;82.33
22104;BME280;11218;48.886;9.426;2023-02-23T10:44:05;97748.69;;;11.93;81.31
22104;BME280;11218;48.886;9.426;2023-02-23T10:46:43;97740.06;;;11.81;81.16
22104;BME280;11218;48.886;9.426;2023-02-23T10:49:17;97743.28;;;11.78;82.12
22104;BME280;11218;48.886;9.426;2023-02-23T10:51:48;97741.13;;;11.80;81.96
22104;BME280;11218;48.886;9.426;2023-02-23T10:54:40;97747.34;;;11.80;82.00
22104;BME280;11218;48.886;9.426;2023-02-23T10:57:18;97741.16;;;11.85;81.03
22104;BME280;11218;48.886;9.426;2023-02-23T11:00:17;97744.91;;;11.89;80.92
22104;BME280;11218;48.886;9.426;2023-02-23T11:02:54;97741.69;;;11.87;79.68
22104;BME280;11218;48.886;9.426;2023-02-23T11:05:33;97745.72;;;11.90;79.47
22104;BME280;11218;48.886;9.426;2023-02-23T11:08:09;97749.25;;;11.95;80.15
22104;BME280;11218;48.886;9.426;2023-02-23T11:10:39;97746.03;;;12.03;80.42
22104;BME280;11218;48.886;9.426;2023-02-23T11:13:20;97743.88;;;12.05;80.51
22104;BME280;11218;48.886;9.426;2023-02-23T11:15:58;97745.78;;;12.10;80.67
22104;BME280;11218;48.886;9.426;2023-02-23T11:18:28;97737.44;;;12.22;79.70
22104;BME280;11218;48.886;9.426;2023-02-23T11:20:56;97737.16;;;12.18;79.75
22104;BME280;11218;48.886;9.426;2023-02-23T11:23:28;97730.41;;;12.21;79.92
22104;BME280;11218;48.886;9.426;2023-02-23T11:25:59;97744.19;;;12.29;80.22
22104;BME280;11218;48.886;9.426;2023-02-23T11:28:31;97735.84;;;12.36;80.59
22104;BME280;11218;48.886;9.426;2023-02-23T11:31:03;97732.59;;;12.44;79.36
22104;BME280;11218;48.886;9.426;2023-02-23T11:33:37;97732.88;;;12.37;79.88
22104;BME280;11218;48.886;9.426;2023-02-23T11:36:15;97725.84;;;12.46;79.80
22104;BME280;11218;48.886;9.426;2023-02-23T11:38:45;97725.59;;;12.53;78.61
22104;BME280;11218;48.886;9.426;2023-02-23T11:41:19;97718.28;;;12.48;79.05
22104;BME280;11218;48.886;9.426;2023-02-23T11:43:50;97714.53;;;12.49;78.51
22104;BME280;11218;48.886;9.426;2023-02-23T11:46:20;97719.66;;;12.61;76.93
22104;BME280;11218;48.886;9.426;2023-02-23T11:48:51;97711.28;;;12.47;77.63
22104;BME280;11218;48.886;9.426;2023-02-23T11:51:29;97711.00;;;12.54;78.39
22104;BME280;11218;48.886;9.426;2023-02-23T11:53:58;97711.81;;;12.60;79.17
22104;BME280;11218;48.886;9.426;2023-02-23T11:56:28;97707.72;;;12.67;79.05
22104;BME280;11218;48.886;9.426;2023-02-23T11:59:01;97708.28;;;12.74;78.64
22104;BME280;11218;48.886;9.426;2023-02-23T12:01:38;97707.97;;;12.91;76.88
22104;BME280;11218;48.886;9.426;2023-02-23T12:04:23;97701.47;;;12.97;73.86
22104;BME280;11218;48.886;9.426;2023-02-23T12:07:17;97695.03;;;12.88;74.50
22104;BME280;11218;48.886;9.426;2023-02-23T12:09:59;97694.22;;;12.88;73.45
22104;BME280;11218;48.886;9.426;2023-02-23T12:12:30;97695.00;;;12.93;74.67
22104;BME280;11218;48.886;9.426;2023-02-23T12:15:09;97692.84;;;13.00;74.75
22104;BME280;11218;48.886;9.426;2023-02-23T12:17:44;97691.19;;;13.09;73.78
22104;BME280;11218;48.886;9.426;2023-02-23T12:20:17;97684.44;;;13.12;72.37
22104;BME280;11218;48.886;9.426;2023-02-23T12:22:51;97678.50;;;13.20;71.26
22104;BME280;11218;48.886;9.426;2023-02-23T12:25:24;97684.97;;;13.14;71.88
22104;BME280;11218;48.886;9.426;2023-02-23T12:27:59;97691.19;;;13.20;72.05
22104;BME280;11218;48.886;9.426;2023-02-23T12:30:49;97677.69;;;13.20;71.85
22104;BME280;11218;48.886;9.426;2023-02-23T12:33:21;97675.78;;;13.25;71.99
22104;BME280;11218;48.886;9.426;2023-02-23T12:35:58;97682.56;;;13.18;71.79
22104;BME280;11218;48.886;9.426;2023-02-23T12:38:33;97678.19;;;13.27;70.44
22104;BME280;11218;48.886;9.426;2023-02-23T12:41:11;97681.47;;;13.19;70.25
22104;BME280;11218;48.886;9.426;2023-02-23T12:43:44;97683.88;;;13.15;70.26
22104;BME280;11218;48.886;9.426;2023-02-23T12:46:21;97674.69;;;13.11;70.83
22104;BME280;11218;48.886;9.426;2023-02-23T12:48:56;97670.66;;;13.13;69.89
22104;BME280;11218;48.886;9.426;2023-02-23T12:51:32;97673.91;;;13.10;70.78
22104;BME280;11218;48.886;9.426;2023-02-23T12:54:01;97663.34;;;13.09;69.87
22104;BME280;11218;48.886;9.426;2023-02-23T12:56:38;97676.63;;;13.00;71.26
22104;BME280;11218;48.886;9.426;2023-02-23T12:59:32;97670.44;;;12.90;71.54
22104;BME280;11218;48.886;9.426;2023-02-23T13:02:11;97664.75;;;12.86;71.82
22104;BME280;11218;48.886;9.426;2023-02-23T13:05:07;97664.50;;;12.88;72.67
22104;BME280;11218;48.886;9.426;2023-02-23T13:07:46;97665.84;;;12.90;73.09
22104;BME280;11218;48.886;9.426;2023-02-23T13:10:23;97662.06;;;12.91;72.45
22104;BME280;11218;48.886;9.426;2023-02-23T13:13:01;97667.75;;;12.84;72.60
22104;BME280;11218;48.886;9.426;2023-02-23T13:15:43;97661.81;;;12.82;72.67
22104;BME280;11218;48.886;9.426;2023-02-23T13:18:21;97665.03;;;12.90;72.56
22104;BME280;11218;48.886;9.426;2023-02-23T13:20:54;97662.59;;;12.88;71.98
22104;BME280;11218;48.886;9.426;2023-02-23T13:23:30;97662.03;;;13.01;71.34
22104;BME280;11218;48.886;9.426;2023-02-23T13:26:09;97666.06;;;13.04;71.43
22104;BME280;11218;48.886;9.426;2023-02-23T13:28:50;97657.69;;;13.10;69.02
22104;BME280;11218;48.886;9.426;2023-02-23T13:31:24;97658.53;;;13.01;69.59
22104;BME280;11218;48.886;9.426;2023-02-23T13:33:57;97651.47;;;13.05;70.95
22104;BME280;11218;48.886;9.426;2023-02-23T13:36:27;97654.72;;;13.07;71.75
22104;BME280;11218;48.886;9.426;2023-02-23T13:39:20;97648.78;;;13.05;71.44
22104;BME280;11218;48.886;9.426;2023-02-23T13:42:06;97649.84;;;13.09;71.38
22104;BME280;11218;48.886;9.426;2023-02-23T13:44:41;97643.63;;;13.13;69.99
22104;BME280;11218;48.886;9.426;2023-02-23T13:47:24;97646.84;;;13.15;69.09
22104;BME280;11218;48.886;9.426;2023-02-23T13:50:04;97645.00;;;13.01;69.62
22104;BME280;11218;48.886;9.426;2023-02-23T13:52:37;97644.75;;;12.97;69.66